Time;durP1;ratioP1;P1;durP2;ratioP2;P2;SDS_P1;SDS_P2;PMS_P1;PMS_P2;Temp;Humidity;BMP_temperature;BMP_pressure;BME280_temperature;BME280_humidity;BME280_pressure;Samples;Min_cycle;Max_cycle;Signal;HPM_P1;HPM_P2
2022/04/23 00:02:50;;;;;;;4.90;4.50;;;;;;;;;;6151997;28;20231;-69
2022/04/23 00:06:11;;;;;;;4.63;4.30;;;;;;;;;;6153576;28;20679;-70
2022/04/23 00:09:33;;;;;;;4.57;3.77;;;;;;;;;;6148774;28;20242;-70
2022/04/23 00:12:54;;;;;;;4.57;4.17;;;;;;;;;;6154208;28;20235;-69
2022/04/23 00:16:15;;;;;;;4.63;3.90;;;;;;;;;;6152998;28;20226;-70
2022/04/23 00:19:40;;;;;;;5.30;4.20;;;;;;;;;;6151858;28;20670;-69
2022/04/23 00:23:01;;;;;;;5.07;4.57;;;;;;;;;;6153213;28;20317;-71
2022/04/23 00:26:21;;;;;;;4.43;4.03;;;;;;;;;;6152060;28;20242;-70
2022/04/23 00:29:42;;;;;;;8.33;5.53;;;;;;;;;;6147847;28;20258;-70
2022/04/23 00:33:03;;;;;;;5.97;5.10;;;;;;;;;;6146558;28;20612;-70
2022/04/23 00:36:26;;;;;;;5.90;4.73;;;;;;;;;;6154172;28;20227;-69
2022/04/23 00:39:48;;;;;;;4.90;4.50;;;;;;;;;;6154085;28;20238;-69
2022/04/23 00:43:12;;;;;;;4.53;4.13;;;;;;;;;;6152423;28;20231;-70
2022/04/23 00:46:32;;;;;;;4.63;4.13;;;;;;;;;;6151277;28;20676;-70
2022/04/23 00:49:53;;;;;;;6.07;5.60;;;;;;;;;;6153853;28;20226;-69
2022/04/23 00:53:15;;;;;;;5.00;4.60;;;;;;;;;;6147657;28;20238;-69
2022/04/23 00:56:36;;;;;;;6.23;5.13;;;;;;;;;;6148785;28;20233;-70
2022/04/23 00:59:56;;;;;;;8.33;4.80;;;;;;;;;;6150847;28;20582;-69
2022/04/23 01:03:19;;;;;;;5.73;5.23;;;;;;;;;;6136790;28;20234;-69
2022/04/23 01:06:40;;;;;;;6.63;4.80;;;;;;;;;;6147738;28;20231;-70
2022/04/23 01:10:02;;;;;;;6.20;5.53;;;;;;;;;;6150123;28;20760;-69
2022/04/23 01:13:25;;;;;;;5.77;5.07;;;;;;;;;;6146285;28;20234;-70
2022/04/23 01:16:47;;;;;;;5.57;4.93;;;;;;;;;;6146697;28;20314;-69
2022/04/23 01:20:09;;;;;;;5.73;5.23;;;;;;;;;;6150350;28;20237;-70
2022/04/23 01:23:30;;;;;;;7.10;5.93;;;;;;;;;;6147927;28;20234;-70
2022/04/23 01:26:51;;;;;;;5.60;5.10;;;;;;;;;;6148611;28;20230;-70
2022/04/23 01:30:11;;;;;;;6.27;5.77;;;;;;;;;;6153383;28;20242;-70
2022/04/23 01:33:34;;;;;;;6.93;6.33;;;;;;;;;;6148590;28;21049;-69
2022/04/23 01:36:55;;;;;;;7.87;6.10;;;;;;;;;;6147180;28;20234;-70
2022/04/23 01:40:18;;;;;;;6.70;6.10;;;;;;;;;;6150120;28;20666;-69
2022/04/23 01:43:38;;;;;;;6.60;5.97;;;;;;;;;;6152141;28;20227;-70
2022/04/23 01:46:59;;;;;;;6.60;6.00;;;;;;;;;;6154215;28;20317;-71
2022/04/23 01:50:19;;;;;;;6.87;6.27;;;;;;;;;;6152361;28;20242;-69
2022/04/23 01:53:41;;;;;;;7.53;6.87;;;;;;;;;;6154931;28;20230;-69
2022/04/23 01:57:02;;;;;;;6.83;6.13;;;;;;;;;;6149560;28;20714;-70
2022/04/23 02:00:22;;;;;;;7.47;6.87;;;;;;;;;;6147850;28;20238;-70
2022/04/23 02:03:43;;;;;;;8.20;7.47;;;;;;;;;;6150626;28;20234;-70
2022/04/23 02:07:04;;;;;;;7.80;7.10;;;;;;;;;;6148628;28;20238;-70
2022/04/23 02:10:26;;;;;;;7.53;6.83;;;;;;;;;;6152120;28;20234;-70
2022/04/23 02:13:47;;;;;;;9.10;8.20;;;;;;;;;;6149735;28;20226;-70
2022/04/23 02:17:09;;;;;;;8.80;8.10;;;;;;;;;;6149867;28;20231;-69
2022/04/23 02:20:30;;;;;;;9.50;8.43;;;;;;;;;;6149889;28;20234;-70
2022/04/23 02:23:50;;;;;;;10.63;9.63;;;;;;;;;;6146442;28;20234;-69
2022/04/23 02:27:13;;;;;;;9.80;8.83;;;;;;;;;;6144806;28;20242;-70
2022/04/23 02:30:33;;;;;;;10.70;9.60;;;;;;;;;;6149716;28;20231;-69
2022/04/23 02:33:54;;;;;;;9.13;8.20;;;;;;;;;;6155544;28;20230;-69
2022/04/23 02:37:14;;;;;;;11.43;10.13;;;;;;;;;;6150130;28;20266;-70
2022/04/23 02:40:35;;;;;;;11.33;9.47;;;;;;;;;;6129679;28;20230;-70
2022/04/23 02:43:59;;;;;;;11.53;10.40;;;;;;;;;;6146707;28;20241;-70
2022/04/23 02:47:19;;;;;;;10.37;9.33;;;;;;;;;;6152201;28;20238;-69
2022/04/23 02:50:40;;;;;;;10.83;9.77;;;;;;;;;;6147620;28;20314;-69
2022/04/23 02:54:01;;;;;;;10.40;9.40;;;;;;;;;;6150555;28;20554;-70
2022/04/23 02:57:21;;;;;;;10.23;9.23;;;;;;;;;;6153818;28;20526;-70
2022/04/23 03:00:44;;;;;;;11.20;10.07;;;;;;;;;;6153206;28;20258;-70
2022/04/23 03:04:05;;;;;;;11.70;9.93;;;;;;;;;;6148995;28;20660;-69
2022/04/23 03:07:28;;;;;;;10.40;9.33;;;;;;;;;;6151206;28;20239;-69
2022/04/23 03:10:49;;;;;;;16.60;11.10;;;;;;;;;;6155265;28;21448;-70
2022/04/23 03:14:10;;;;;;;13.17;11.33;;;;;;;;;;6147995;28;20234;-70
2022/04/23 03:17:32;;;;;;;13.47;12.10;;;;;;;;;;6155633;28;20234;-69
2022/04/23 03:20:53;;;;;;;12.67;11.37;;;;;;;;;;6154379;28;20340;-70
2022/04/23 03:24:14;;;;;;;14.43;12.93;;;;;;;;;;6150628;28;20242;-70
2022/04/23 03:27:35;;;;;;;12.20;11.10;;;;;;;;;;6157888;28;20230;-70
2022/04/23 03:30:55;;;;;;;11.50;10.33;;;;;;;;;;6152028;28;20265;-70
2022/04/23 03:34:18;;;;;;;11.97;10.87;;;;;;;;;;6154105;28;20679;-71
2022/04/23 03:37:39;;;;;;;14.60;11.13;;;;;;;;;;6157599;28;20329;-70
2022/04/23 03:40:59;;;;;;;12.43;11.23;;;;;;;;;;6153869;28;20247;-70
2022/04/23 03:44:20;;;;;;;14.03;12.53;;;;;;;;;;6151166;28;20251;-69
2022/04/23 03:47:43;;;;;;;14.73;11.67;;;;;;;;;;6158760;28;20262;-68
2022/04/23 03:51:06;;;;;;;15.90;12.73;;;;;;;;;;6155310;28;20230;-69
2022/04/23 03:54:27;;;;;;;14.00;12.60;;;;;;;;;;6159266;28;20231;-70
2022/04/23 03:57:48;;;;;;;15.47;13.87;;;;;;;;;;6157451;28;20238;-70
2022/04/23 04:01:08;;;;;;;13.83;12.43;;;;;;;;;;6157062;28;20576;-69
2022/04/23 04:04:31;;;;;;;14.53;13.10;;;;;;;;;;6138260;28;20612;-70
2022/04/23 04:07:53;;;;;;;13.63;12.30;;;;;;;;;;6156100;28;20317;-71
2022/04/23 04:11:14;;;;;;;14.10;12.70;;;;;;;;;;6159198;28;20269;-70
2022/04/23 04:14:36;;;;;;;16.13;13.13;;;;;;;;;;6154115;28;20230;-71
2022/04/23 04:17:57;;;;;;;15.57;14.00;;;;;;;;;;6154310;28;20554;-69
2022/04/23 04:21:19;;;;;;;14.93;13.60;;;;;;;;;;6151776;28;20439;-70
2022/04/23 04:24:41;;;;;;;14.87;13.30;;;;;;;;;;6153452;28;20226;-70
2022/04/23 04:28:02;;;;;;;14.30;13.00;;;;;;;;;;6154619;28;20226;-70
2022/04/23 04:35:00;;;;;;;15.10;13.67;;;;;;;;;;6149921;28;20230;-70
2022/04/23 04:38:21;;;;;;;16.40;14.80;;;;;;;;;;6154179;28;20230;-70
2022/04/23 04:41:43;;;;;;;16.60;14.87;;;;;;;;;;6127322;28;20231;-70
2022/04/23 04:45:04;;;;;;;17.13;15.43;;;;;;;;;;6151671;28;20559;-70
2022/04/23 04:48:25;;;;;;;16.17;14.63;;;;;;;;;;6151733;28;20586;-70
2022/04/23 04:51:46;;;;;;;17.00;15.27;;;;;;;;;;6146496;28;20230;-70
2022/04/23 04:55:07;;;;;;;17.70;15.27;;;;;;;;;;6149444;28;20262;-69
2022/04/23 04:58:28;;;;;;;17.20;15.60;;;;;;;;;;6151921;28;20231;-70
2022/04/23 05:01:50;;;;;;;17.03;15.27;;;;;;;;;;6155933;28;21532;-70
2022/04/23 05:05:11;;;;;;;17.53;15.77;;;;;;;;;;6153780;28;20316;-70
2022/04/23 05:08:31;;;;;;;16.30;14.67;;;;;;;;;;6154157;28;20230;-70
2022/04/23 05:11:53;;;;;;;15.73;14.10;;;;;;;;;;6152276;28;20233;-70
2022/04/23 05:15:17;;;;;;;16.00;14.37;;;;;;;;;;6152857;28;20226;-69
2022/04/23 05:18:38;;;;;;;14.73;13.33;;;;;;;;;;6151241;28;20238;-70
2022/04/23 05:22:00;;;;;;;16.27;14.87;;;;;;;;;;6153067;28;20238;-70
2022/04/23 05:25:21;;;;;;;17.53;14.60;;;;;;;;;;6149998;28;20242;-68
2022/04/23 05:28:41;;;;;;;15.40;13.97;;;;;;;;;;6149153;28;20996;-69
2022/04/23 05:32:04;;;;;;;13.23;11.90;;;;;;;;;;6144312;28;20238;-70
2022/04/23 05:35:24;;;;;;;14.50;13.10;;;;;;;;;;6145361;28;20248;-70
2022/04/23 05:38:45;;;;;;;14.57;13.37;;;;;;;;;;6143961;28;20235;-71
2022/04/23 05:42:06;;;;;;;14.60;13.30;;;;;;;;;;6147097;28;20234;-70
2022/04/23 05:45:27;;;;;;;14.43;13.20;;;;;;;;;;6151181;28;20762;-70
2022/04/23 05:48:48;;;;;;;13.83;12.60;;;;;;;;;;6144559;28;20230;-69
2022/04/23 05:52:10;;;;;;;14.40;13.17;;;;;;;;;;6147815;28;20235;-69
2022/04/23 05:55:31;;;;;;;15.33;13.93;;;;;;;;;;6151734;28;20234;-70
2022/04/23 05:58:53;;;;;;;13.70;12.57;;;;;;;;;;6150822;28;20242;-70
2022/04/23 06:02:14;;;;;;;13.47;12.17;;;;;;;;;;6147541;28;20270;-70
2022/04/23 06:05:36;;;;;;;14.40;13.03;;;;;;;;;;6141140;28;20254;-70
2022/04/23 06:08:56;;;;;;;14.33;12.90;;;;;;;;;;6147307;28;20636;-72
2022/04/23 06:12:17;;;;;;;14.30;13.10;;;;;;;;;;6145902;28;20250;-71
2022/04/23 06:15:37;;;;;;;13.23;12.10;;;;;;;;;;6146761;28;20584;-69
2022/04/23 06:18:58;;;;;;;12.63;11.57;;;;;;;;;;6146572;28;20230;-69
2022/04/23 06:22:20;;;;;;;12.37;11.37;;;;;;;;;;6136822;28;20227;-69
2022/04/23 06:25:40;;;;;;;8.57;7.47;;;;;;;;;;6149869;28;20250;-70
2022/04/23 06:29:01;;;;;;;12.37;11.03;;;;;;;;;;6150548;28;20234;-71
2022/04/23 06:32:22;;;;;;;10.47;9.57;;;;;;;;;;6144685;28;20552;-71
2022/04/23 06:35:43;;;;;;;11.27;10.27;;;;;;;;;;6143800;28;20571;-68
2022/04/23 06:39:04;;;;;;;10.90;10.00;;;;;;;;;;6136972;28;20238;-71
2022/04/23 06:42:25;;;;;;;11.70;10.67;;;;;;;;;;6143430;28;22015;-71
2022/04/23 06:45:48;;;;;;;11.97;10.60;;;;;;;;;;6134111;28;20238;-71
2022/04/23 06:49:11;;;;;;;11.90;10.90;;;;;;;;;;6146821;28;20234;-72
2022/04/23 06:52:31;;;;;;;11.93;10.93;;;;;;;;;;6149425;28;20223;-71
2022/04/23 06:55:53;;;;;;;10.20;9.40;;;;;;;;;;6148058;28;20238;-72
2022/04/23 06:59:13;;;;;;;11.00;10.10;;;;;;;;;;6146998;28;20235;-73
2022/04/23 07:02:34;;;;;;;11.03;10.23;;;;;;;;;;6146055;28;20273;-72
2022/04/23 07:05:54;;;;;;;10.57;9.57;;;;;;;;;;6149742;28;20361;-71
2022/04/23 07:09:15;;;;;;;9.60;8.80;;;;;;;;;;6149544;28;20230;-72
2022/04/23 07:12:37;;;;;;;9.77;8.80;;;;;;;;;;6145219;28;20231;-71
2022/04/23 07:15:57;;;;;;;9.60;8.90;;;;;;;;;;6141710;28;20580;-73
2022/04/23 07:19:18;;;;;;;10.03;9.23;;;;;;;;;;6163989;28;20227;-72
2022/04/23 07:22:39;;;;;;;9.50;8.70;;;;;;;;;;6142427;28;20234;-71
2022/04/23 07:25:59;;;;;;;8.20;7.40;;;;;;;;;;6151973;28;20226;-73
2022/04/23 07:29:21;;;;;;;8.70;8.00;;;;;;;;;;6146510;28;20238;-71
2022/04/23 07:32:42;;;;;;;7.07;6.40;;;;;;;;;;6147194;28;20238;-71
2022/04/23 07:39:41;;;;;;;7.43;6.73;;;;;;;;;;6154233;28;20222;-71
2022/04/23 07:43:01;;;;;;;7.83;7.10;;;;;;;;;;6148466;28;20227;-72
2022/04/23 07:46:23;;;;;;;8.27;7.47;;;;;;;;;;6147709;28;20815;-71
2022/04/23 07:49:44;;;;;;;7.50;6.90;;;;;;;;;;6158073;28;20289;-70
2022/04/23 07:53:07;;;;;;;7.67;6.90;;;;;;;;;;6159267;28;20231;-71
2022/04/23 07:56:27;;;;;;;7.53;6.93;;;;;;;;;;6155707;28;20484;-71
2022/04/23 07:59:47;;;;;;;7.23;6.63;;;;;;;;;;6156193;28;20321;-71
2022/04/23 08:03:10;;;;;;;7.43;6.47;;;;;;;;;;6152635;28;20231;-71
2022/04/23 08:06:31;;;;;;;6.17;5.67;;;;;;;;;;6156536;28;20231;-72
2022/04/23 08:09:52;;;;;;;7.07;5.60;;;;;;;;;;6157791;28;20329;-71
2022/04/23 08:13:12;;;;;;;6.07;5.53;;;;;;;;;;6153446;28;20234;-72
2022/04/23 08:16:33;;;;;;;6.13;5.73;;;;;;;;;;6155824;28;20612;-72
2022/04/23 08:19:54;;;;;;;6.17;5.20;;;;;;;;;;6161214;28;20230;-70
2022/04/23 08:23:16;;;;;;;5.73;4.93;;;;;;;;;;6162734;28;20604;-71
2022/04/23 08:26:36;;;;;;;5.37;4.83;;;;;;;;;;6154580;28;20661;-71
2022/04/23 08:37:10;;;;;;;5.10;4.70;;;;;;;;;;6154402;28;20243;-71
2022/04/23 08:40:35;;;;;;;3.83;3.63;;;;;;;;;;6154677;28;20235;-72
2022/04/23 08:43:57;;;;;;;5.77;4.60;;;;;;;;;;6152228;28;20235;-71
2022/04/23 08:47:19;;;;;;;3.93;3.63;;;;;;;;;;6152191;28;20226;-71
2022/04/23 08:50:40;;;;;;;5.20;4.83;;;;;;;;;;6136119;28;20227;-71
2022/04/23 08:54:04;;;;;;;4.90;4.53;;;;;;;;;;6156708;28;20234;-72
2022/04/23 08:57:24;;;;;;;4.80;4.40;;;;;;;;;;6158504;28;20234;-70
2022/04/23 09:00:45;;;;;;;4.47;4.13;;;;;;;;;;6154666;28;20514;-71
2022/04/23 09:04:06;;;;;;;4.10;3.80;;;;;;;;;;6155061;28;20325;-71
2022/04/23 09:07:29;;;;;;;4.67;4.30;;;;;;;;;;6159849;28;20242;-70
2022/04/23 09:10:54;;;;;;;4.43;4.13;;;;;;;;;;6157921;28;20233;-70
2022/04/23 09:14:23;;;;;;;5.07;4.67;;;;;;;;;;6158159;28;20516;-72
2022/04/23 09:25:02;;;;;;;5.20;4.57;;;;;;;;;;6155975;28;20265;-71
2022/04/23 09:28:26;;;;;;;4.20;3.77;;;;;;;;;;6158224;28;20246;-71
2022/04/23 09:31:47;;;;;;;4.80;4.50;;;;;;;;;;6136990;28;20232;-70
2022/04/23 09:35:09;;;;;;;4.70;4.30;;;;;;;;;;6137500;28;20329;-72
2022/04/23 09:38:32;;;;;;;4.13;3.83;;;;;;;;;;6153717;28;20227;-71
2022/04/23 09:41:52;;;;;;;4.83;4.33;;;;;;;;;;6157775;28;20323;-71
2022/04/23 09:45:18;;;;;;;3.90;3.60;;;;;;;;;;6135520;28;20255;-72
2022/04/23 09:48:39;;;;;;;4.10;3.80;;;;;;;;;;6150885;28;20633;-71
2022/04/23 09:52:00;;;;;;;5.13;4.73;;;;;;;;;;6154168;28;20234;-71
2022/04/23 09:55:21;;;;;;;5.60;5.03;;;;;;;;;;6159748;28;20235;-71
2022/04/23 09:58:42;;;;;;;4.60;4.30;;;;;;;;;;6160991;28;20365;-71
2022/04/23 10:02:07;;;;;;;4.53;4.23;;;;;;;;;;6155732;28;20261;-71
2022/04/23 10:05:29;;;;;;;5.00;4.60;;;;;;;;;;6157463;28;20743;-71
2022/04/23 10:08:51;;;;;;;5.77;3.87;;;;;;;;;;6153726;28;20230;-70
2022/04/23 10:12:15;;;;;;;5.00;4.60;;;;;;;;;;6159371;28;20231;-70
2022/04/23 10:15:37;;;;;;;11.20;10.33;;;;;;;;;;6156020;28;20234;-71
2022/04/23 10:18:59;;;;;;;4.40;4.10;;;;;;;;;;6159029;28;20230;-70
2022/04/23 10:22:22;;;;;;;4.70;4.33;;;;;;;;;;6155909;28;20326;-71
2022/04/23 10:25:46;;;;;;;5.20;4.80;;;;;;;;;;6158459;28;20230;-71
2022/04/23 10:29:10;;;;;;;4.00;3.70;;;;;;;;;;6155642;28;20237;-71
2022/04/23 10:32:37;;;;;;;4.13;3.80;;;;;;;;;;6156979;28;20231;-71
2022/04/23 10:36:06;;;;;;;4.43;4.13;;;;;;;;;;6159474;28;20238;-71
2022/04/23 10:39:27;;;;;;;3.90;3.60;;;;;;;;;;6155608;28;20265;-71
2022/04/23 10:43:07;;;;;;;4.87;4.50;;;;;;;;;;6156312;28;20235;-70
2022/04/23 10:46:46;;;;;;;5.47;4.90;;;;;;;;;;6154235;28;20230;-71
2022/04/23 10:50:28;;;;;;;8.23;7.23;;;;;;;;;;6154856;28;20309;-71
2022/04/23 10:53:55;;;;;;;4.30;4.00;;;;;;;;;;6153481;28;20715;-71
2022/04/23 10:57:15;;;;;;;4.30;4.00;;;;;;;;;;6152797;28;20622;-70
2022/04/23 11:00:43;;;;;;;4.20;3.90;;;;;;;;;;6149241;28;20234;-73
2022/04/23 11:04:10;;;;;;;4.82;4.30;;;;;;;;;;6145559;28;20227;-73
2022/04/23 11:14:52;;;;;;;4.60;4.20;;;;;;;;;;6153258;28;20227;-72
2022/04/23 11:18:14;;;;;;;4.90;4.25;;;;;;;;;;6143851;28;20234;-70
2022/04/23 11:21:34;;;;;;;4.10;3.83;;;;;;;;;;6149329;28;20238;-71
2022/04/23 11:24:57;;;;;;;4.68;4.38;;;;;;;;;;6149646;28;20623;-70
2022/04/23 11:28:23;;;;;;;5.07;4.70;;;;;;;;;;6149416;28;20247;-72
2022/04/23 11:31:50;;;;;;;5.13;4.72;;;;;;;;;;6147653;28;20836;-72
2022/04/23 11:35:11;;;;;;;5.35;4.22;;;;;;;;;;6144450;28;20929;-73
2022/04/23 11:38:32;;;;;;;4.47;4.18;;;;;;;;;;6156719;28;20970;-73
2022/04/23 11:41:52;;;;;;;6.90;4.95;;;;;;;;;;6156344;28;20247;-74
2022/04/23 11:45:16;;;;;;;6.45;5.95;;;;;;;;;;6159970;28;20624;-72
2022/04/23 11:48:40;;;;;;;4.82;4.43;;;;;;;;;;6157237;28;20238;-72
2022/04/23 11:52:02;;;;;;;4.57;4.25;;;;;;;;;;6157714;28;20226;-73
2022/04/23 11:55:23;;;;;;;4.10;3.80;;;;;;;;;;6158138;28;20231;-73
2022/04/23 11:58:44;;;;;;;4.75;4.43;;;;;;;;;;6155812;28;20235;-73
2022/04/23 12:02:08;;;;;;;4.13;3.83;;;;;;;;;;6151634;28;20632;-72
2022/04/23 12:05:29;;;;;;;4.07;3.72;;;;;;;;;;6155655;28;20230;-72
2022/04/23 12:08:50;;;;;;;5.32;3.42;;;;;;;;;;6153477;28;20264;-73
2022/04/23 12:12:11;;;;;;;4.18;3.90;;;;;;;;;;6159579;28;20261;-73
2022/04/23 12:15:32;;;;;;;5.75;4.90;;;;;;;;;;6156492;28;20226;-73
2022/04/23 12:18:59;;;;;;;4.90;4.50;;;;;;;;;;6153525;28;20313;-73
2022/04/23 12:22:23;;;;;;;4.55;4.10;;;;;;;;;;6156485;28;20536;-73
2022/04/23 12:25:43;;;;;;;4.40;4.10;;;;;;;;;;6155699;28;20231;-72
2022/04/23 12:40:46;;;;;;;6.05;5.53;;;;;;;;;;6155440;28;20227;-72
2022/04/23 12:44:16;;;;;;;7.22;6.70;;;;;;;;;;6156728;28;20234;-73
2022/04/23 12:47:38;;;;;;;6.78;6.10;;;;;;;;;;6157758;28;20229;-73
2022/04/23 12:51:06;;;;;;;6.57;6.07;;;;;;;;;;6155718;28;20242;-72
2022/04/23 12:54:28;;;;;;;6.10;5.70;;;;;;;;;;6160010;28;20332;-72
2022/04/23 12:57:49;;;;;;;7.20;6.70;;;;;;;;;;6155224;28;20232;-73
2022/04/23 13:01:10;;;;;;;6.82;6.32;;;;;;;;;;6155746;28;20230;-73
2022/04/23 13:04:31;;;;;;;7.05;6.55;;;;;;;;;;6144033;28;20226;-73
2022/04/23 13:11:30;;;;;;;7.55;7.00;;;;;;;;;;6155477;28;20246;-72
2022/04/23 13:14:51;;;;;;;7.82;6.43;;;;;;;;;;6157400;28;20613;-73
2022/04/23 13:18:11;;;;;;;6.13;5.72;;;;;;;;;;6153961;28;20227;-73
2022/04/23 13:21:33;;;;;;;6.57;5.93;;;;;;;;;;6154637;28;20797;-74
2022/04/23 13:24:53;;;;;;;6.78;6.18;;;;;;;;;;6156230;28;20238;-74
2022/04/23 13:28:15;;;;;;;7.25;6.65;;;;;;;;;;6149191;28;20309;-73
2022/04/23 13:31:39;;;;;;;7.65;6.88;;;;;;;;;;6149019;28;20540;-72
2022/04/23 13:34:59;;;;;;;7.95;7.35;;;;;;;;;;6145893;28;20249;-72
2022/04/23 13:38:20;;;;;;;7.38;6.68;;;;;;;;;;6154814;28;20539;-72
2022/04/23 13:41:40;;;;;;;6.93;6.15;;;;;;;;;;6153949;28;20242;-72
2022/04/23 13:45:03;;;;;;;6.55;5.93;;;;;;;;;;6154727;28;20616;-72
2022/04/23 13:48:25;;;;;;;6.95;6.45;;;;;;;;;;6154322;28;20550;-72
2022/04/23 13:51:45;;;;;;;7.20;6.63;;;;;;;;;;6152391;28;20227;-72
2022/04/23 13:55:09;;;;;;;6.43;5.90;;;;;;;;;;6154166;28;20230;-71
2022/04/23 13:58:30;;;;;;;6.80;6.25;;;;;;;;;;6158494;28;20489;-72
2022/04/23 14:12:43;;;;;;;7.85;7.15;;;;;;;;;;6156096;28;20333;-72
2022/04/23 14:16:04;;;;;;;9.60;8.73;;;;;;;;;;6158739;28;20751;-72
2022/04/23 14:19:26;;;;;;;8.60;7.90;;;;;;;;;;6149627;28;20274;-71
2022/04/23 14:22:46;;;;;;;9.43;6.03;;;;;;;;;;6156301;28;20235;-70
2022/04/23 14:26:07;;;;;;;8.55;7.85;;;;;;;;;;6150684;28;20595;-73
2022/04/23 14:29:27;;;;;;;9.25;8.50;;;;;;;;;;6151772;28;20324;-75
2022/04/23 14:32:50;;;;;;;14.63;8.15;;;;;;;;;;6134482;28;20230;-75
2022/04/23 14:36:12;;;;;;;10.38;6.97;;;;;;;;;;6151010;28;20237;-73
2022/04/23 14:39:33;;;;;;;8.75;8.05;;;;;;;;;;6149579;28;20233;-73
2022/04/23 14:42:55;;;;;;;8.50;7.78;;;;;;;;;;6157065;28;20226;-71
2022/04/23 14:46:15;;;;;;;7.07;6.55;;;;;;;;;;6155592;28;20235;-70
2022/04/23 14:49:36;;;;;;;7.68;7.07;;;;;;;;;;6146397;28;20973;-71
2022/04/23 14:56:35;;;;;;;8.65;8.00;;;;;;;;;;6155526;28;20238;-71
2022/04/23 14:59:56;;;;;;;9.18;8.48;;;;;;;;;;6154689;28;20254;-72
2022/04/23 15:03:17;;;;;;;6.88;6.32;;;;;;;;;;6153092;28;20238;-70
2022/04/23 15:06:38;;;;;;;8.93;8.23;;;;;;;;;;6157415;28;20226;-69
2022/04/23 15:10:00;;;;;;;8.68;7.97;;;;;;;;;;6155016;28;20246;-72
2022/04/23 15:13:20;;;;;;;6.22;5.68;;;;;;;;;;6154614;28;20230;-73
2022/04/23 15:16:41;;;;;;;7.13;6.53;;;;;;;;;;6147532;28;20238;-70
2022/04/23 15:20:02;;;;;;;7.40;6.70;;;;;;;;;;6138460;28;20227;-70
2022/04/23 15:23:23;;;;;;;9.20;8.50;;;;;;;;;;6149132;28;20544;-71
2022/04/23 15:26:44;;;;;;;8.52;7.93;;;;;;;;;;6152870;28;20789;-69
2022/04/23 15:30:05;;;;;;;7.50;6.90;;;;;;;;;;6153280;28;20246;-71
2022/04/23 15:33:26;;;;;;;7.45;6.80;;;;;;;;;;6153216;28;20239;-70
2022/04/23 15:36:46;;;;;;;7.97;7.20;;;;;;;;;;6140410;28;20250;-70
2022/04/23 15:40:08;;;;;;;8.60;7.63;;;;;;;;;;6146024;28;20227;-69
2022/04/23 15:43:29;;;;;;;7.32;6.72;;;;;;;;;;6159518;28;20507;-71
2022/04/23 15:46:50;;;;;;;6.93;6.22;;;;;;;;;;6159221;28;20269;-71
2022/04/23 15:50:11;;;;;;;7.18;6.68;;;;;;;;;;6140859;28;20243;-73
2022/04/23 15:53:31;;;;;;;6.28;5.78;;;;;;;;;;6150140;28;20250;-70
2022/04/23 15:56:52;;;;;;;5.65;5.25;;;;;;;;;;6155712;28;20234;-72
2022/04/23 16:00:14;;;;;;;7.60;7.00;;;;;;;;;;6146636;28;20604;-71
2022/04/23 16:03:35;;;;;;;5.60;5.20;;;;;;;;;;6154967;28;20223;-71
2022/04/23 16:06:55;;;;;;;6.57;6.07;;;;;;;;;;6154434;28;20284;-70
2022/04/23 16:10:16;;;;;;;6.88;6.03;;;;;;;;;;6149793;28;20234;-68
2022/04/23 16:13:36;;;;;;;5.30;4.90;;;;;;;;;;6136178;28;20226;-69
2022/04/23 16:16:58;;;;;;;6.93;6.32;;;;;;;;;;6159833;28;20226;-69
2022/04/23 16:20:19;;;;;;;8.30;6.88;;;;;;;;;;6152220;28;20234;-72
2022/04/23 16:23:39;;;;;;;8.18;5.82;;;;;;;;;;6125840;28;20551;-74
2022/04/23 16:27:00;;;;;;;10.20;6.45;;;;;;;;;;6130292;28;20235;-71
2022/04/23 16:30:21;;;;;;;7.05;6.28;;;;;;;;;;6132910;28;20239;-72
2022/04/23 16:33:43;;;;;;;6.30;5.80;;;;;;;;;;6159071;28;20242;-74
2022/04/23 16:48:12;;;;;;;7.68;6.00;;;;;;;;;;6157187;28;20351;-73
2022/04/23 16:51:34;;;;;;;5.78;5.10;;;;;;;;;;6160328;28;20234;-71
2022/04/23 16:54:55;;;;;;;5.55;5.05;;;;;;;;;;6149316;28;20230;-70
2022/04/23 16:58:15;;;;;;;6.00;4.90;;;;;;;;;;6157992;28;20366;-73
2022/04/23 17:01:36;;;;;;;6.28;5.15;;;;;;;;;;6163011;28;20234;-73
2022/04/23 17:04:57;;;;;;;5.20;4.80;;;;;;;;;;6160405;28;20231;-72
2022/04/23 17:08:19;;;;;;;5.45;4.95;;;;;;;;;;6151612;28;20230;-70
2022/04/23 17:11:39;;;;;;;6.15;5.47;;;;;;;;;;6167125;28;20242;-71
2022/04/23 17:15:00;;;;;;;6.28;5.75;;;;;;;;;;6161082;28;20235;-69
2022/04/23 17:18:21;;;;;;;5.75;5.15;;;;;;;;;;6149568;28;20258;-70
2022/04/23 17:21:41;;;;;;;5.93;4.97;;;;;;;;;;6153856;28;20235;-76
2022/04/23 17:25:04;;;;;;;8.32;4.60;;;;;;;;;;6148007;28;20238;-69
2022/04/23 17:28:25;;;;;;;5.60;5.13;;;;;;;;;;6152634;28;20604;-68
2022/04/23 17:31:45;;;;;;;9.18;8.35;;;;;;;;;;6147884;28;20290;-69
2022/04/23 17:35:09;;;;;;;26.55;23.92;;;;;;;;;;6153262;28;20326;-68
2022/04/23 17:42:08;;;;;;;139.77;91.85;;;;;;;;;;6156487;28;20234;-75
2022/04/23 17:45:32;;;;;;;69.60;49.53;;;;;;;;;;6155118;28;20643;-74
2022/04/23 17:48:52;;;;;;;39.10;26.10;;;;;;;;;;6155645;28;20223;-73
2022/04/23 17:52:16;;;;;;;49.17;22.75;;;;;;;;;;6158382;28;20238;-76
2022/04/23 17:55:39;;;;;;;270.95;244.00;;;;;;;;;;6154233;28;20864;-77
2022/04/23 17:59:01;;;;;;;23.17;16.87;;;;;;;;;;6151804;28;20605;-74
2022/04/23 18:09:38;;;;;;;5.30;4.40;;;;;;;;;;6167796;28;20526;-70
2022/04/23 18:12:58;;;;;;;5.53;4.53;;;;;;;;;;6157570;28;20363;-69
2022/04/23 18:16:20;;;;;;;5.17;4.40;;;;;;;;;;6154127;28;20550;-72
2022/04/23 18:19:41;;;;;;;4.43;3.83;;;;;;;;;;6151992;28;20234;-69
2022/04/23 18:23:01;;;;;;;6.83;4.93;;;;;;;;;;6154067;28;20241;-71
2022/04/23 18:26:22;;;;;;;5.73;5.23;;;;;;;;;;6153785;28;20329;-70
2022/04/23 18:29:44;;;;;;;4.97;4.40;;;;;;;;;;6147621;28;20234;-70
2022/04/23 18:33:07;;;;;;;6.43;4.13;;;;;;;;;;6149423;28;20227;-69
2022/04/23 18:36:27;;;;;;;7.70;5.60;;;;;;;;;;6154520;28;20234;-71
2022/04/23 18:39:49;;;;;;;6.93;4.60;;;;;;;;;;6123205;28;20238;-71
2022/04/23 18:43:11;;;;;;;5.13;4.00;;;;;;;;;;6141676;28;20226;-69
2022/04/23 18:46:32;;;;;;;4.60;4.20;;;;;;;;;;6145815;28;20234;-68
2022/04/23 19:11:14;;;;;;;4.53;3.87;;;;;;;;;;6121004;28;20262;-68
2022/04/23 19:14:36;;;;;;;5.10;4.60;;;;;;;;;;6136597;28;20249;-68
2022/04/23 19:17:56;;;;;;;5.87;4.87;;;;;;;;;;6154901;28;20329;-69
2022/04/23 19:28:34;;;;;;;4.87;4.47;;;;;;;;;;6152460;28;20239;-69
2022/04/23 19:31:54;;;;;;;7.53;6.40;;;;;;;;;;6155333;28;20235;-70
2022/04/23 19:35:15;;;;;;;6.33;5.73;;;;;;;;;;6156805;28;20608;-70
2022/04/23 19:38:35;;;;;;;5.00;4.60;;;;;;;;;;6156381;28;20295;-72
2022/04/23 19:41:58;;;;;;;6.47;5.00;;;;;;;;;;6150708;28;20249;-68
2022/04/23 19:45:20;;;;;;;6.07;5.47;;;;;;;;;;6148159;28;20252;-72
2022/04/23 19:48:40;;;;;;;4.77;4.37;;;;;;;;;;6157020;28;20231;-69
2022/04/23 19:52:02;;;;;;;5.80;5.20;;;;;;;;;;6155790;28;20243;-73
2022/04/23 19:55:25;;;;;;;6.13;5.20;;;;;;;;;;6155846;28;20624;-72
2022/04/23 19:58:47;;;;;;;8.53;4.80;;;;;;;;;;6159842;28;20230;-72
2022/04/23 20:02:08;;;;;;;4.63;4.23;;;;;;;;;;6151567;28;20226;-73
2022/04/23 20:05:28;;;;;;;5.10;4.70;;;;;;;;;;6158008;28;20234;-71
2022/04/23 20:08:49;;;;;;;6.57;5.60;;;;;;;;;;6156382;28;20230;-71
2022/04/23 20:12:10;;;;;;;5.57;5.07;;;;;;;;;;6153316;28;20238;-70
2022/04/23 20:15:32;;;;;;;6.30;5.70;;;;;;;;;;6154039;28;20230;-70
2022/04/23 20:18:53;;;;;;;7.17;6.57;;;;;;;;;;6158931;28;20242;-71
2022/04/23 20:22:14;;;;;;;6.33;5.83;;;;;;;;;;6152972;28;21021;-70
2022/04/23 20:25:35;;;;;;;8.07;7.37;;;;;;;;;;6154387;28;20230;-70
2022/04/23 20:29:09;;;;;;;6.53;5.90;;;;;;;;;;6158166;28;20234;-70
2022/04/23 20:32:31;;;;;;;6.27;5.77;;;;;;;;;;6152467;28;20226;-70
2022/04/23 20:39:30;;;;;;;5.70;5.30;;;;;;;;;;6152685;28;20230;-70
2022/04/23 20:42:50;;;;;;;6.97;6.37;;;;;;;;;;6151335;28;20234;-69
2022/04/23 20:46:10;;;;;;;6.27;5.73;;;;;;;;;;6151242;28;20238;-72
2022/04/23 20:49:32;;;;;;;6.50;4.93;;;;;;;;;;6151164;28;20512;-71
2022/04/23 20:56:30;;;;;;;6.07;5.60;;;;;;;;;;6152285;28;20234;-72
2022/04/23 20:59:51;;;;;;;5.17;4.77;;;;;;;;;;6150190;28;20894;-71
2022/04/23 21:03:12;;;;;;;6.10;5.60;;;;;;;;;;6149084;28;20238;-73
2022/04/23 21:06:37;;;;;;;6.13;5.63;;;;;;;;;;6154445;28;20235;-74
2022/04/23 21:09:57;;;;;;;5.93;5.33;;;;;;;;;;6152592;28;20238;-71
2022/04/23 21:13:18;;;;;;;6.53;5.13;;;;;;;;;;6117594;28;20474;-72
2022/04/23 21:16:39;;;;;;;6.67;5.97;;;;;;;;;;6150487;28;20703;-75
2022/04/23 21:19:59;;;;;;;7.03;6.43;;;;;;;;;;6149033;28;20264;-74
2022/04/23 21:23:22;;;;;;;7.30;6.60;;;;;;;;;;6154673;28;21168;-74
2022/04/23 21:26:43;;;;;;;6.23;5.13;;;;;;;;;;6154964;28;20235;-75
2022/04/23 21:30:05;;;;;;;5.73;5.27;;;;;;;;;;6153893;28;20226;-75
2022/04/23 21:33:25;;;;;;;6.77;6.13;;;;;;;;;;6152575;28;20672;-73
2022/04/23 21:36:46;;;;;;;7.73;6.87;;;;;;;;;;6151186;28;20258;-71
2022/04/23 21:40:08;;;;;;;4.93;4.40;;;;;;;;;;6151660;28;20231;-72
2022/04/23 21:47:09;;;;;;;9.23;5.57;;;;;;;;;;6142728;28;20222;-74
2022/04/23 21:50:30;;;;;;;5.27;4.87;;;;;;;;;;6147701;28;20250;-72
2022/04/23 21:53:51;;;;;;;6.07;5.47;;;;;;;;;;6145272;28;20234;-70
2022/04/23 21:57:14;;;;;;;7.13;5.83;;;;;;;;;;6151099;28;20333;-73
2022/04/23 22:00:54;;;;;;;5.77;5.27;;;;;;;;;;6147315;28;20325;-70